createdAt,value
2019-04-22T00:00:40.442Z,43.41
2019-04-22T00:01:35.038Z,43.30
2019-04-22T00:02:40.068Z,43.43
2019-04-22T00:03:43.471Z,43.61
2019-04-22T00:04:47.549Z,43.73
2019-04-22T00:05:54.993Z,43.91
2019-04-22T00:07:01.332Z,43.83
2019-04-22T00:08:03.767Z,42.80
2019-04-22T00:09:07.065Z,43.93
2019-04-22T00:10:09.644Z,43.73
2019-04-22T00:11:04.885Z,44.44
2019-04-22T00:12:12.354Z,43.61
2019-04-22T00:13:00.904Z,43.73
2019-04-22T00:14:15.063Z,43.02
2019-04-22T00:15:01.931Z,43.73
2019-04-22T00:15:58.426Z,43.32
2019-04-22T00:17:08.621Z,43.63
2019-04-22T00:20:04.356Z,44.06
2019-04-22T00:21:04.870Z,44.15
2019-04-22T00:22:03.243Z,44.15
2019-04-22T00:22:56.655Z,43.93
2019-04-22T00:24:06.128Z,44.13
2019-04-22T00:25:01.131Z,43.95
2019-04-22T00:26:01.906Z,44.06
2019-04-22T00:27:08.305Z,44.46
2019-04-22T00:28:06.669Z,44.54
2019-04-22T00:29:21.274Z,43.85
2019-04-22T00:30:07.938Z,43.93
2019-04-22T00:31:03.134Z,43.85
2019-04-22T00:31:59.631Z,44.06
2019-04-22T00:33:03.423Z,44.13
2019-04-22T00:33:58.883Z,43.24
2019-04-22T00:34:59.326Z,43.95
2019-04-22T00:36:01.184Z,43.35
2019-04-22T00:38:08.967Z,44.26
2019-04-22T00:39:12.478Z,44.15
2019-04-22T00:40:03.162Z,44.66
2019-04-22T00:41:00.607Z,44.46
2019-04-22T00:42:01.769Z,44.76
2019-04-22T00:42:58.752Z,44.96
2019-04-22T00:44:02.999Z,45.17
2019-04-22T00:45:59.093Z,44.78
2019-04-22T00:47:00.683Z,44.99
2019-04-22T00:48:00.720Z,44.99
2019-04-22T00:49:45.378Z,44.89
2019-04-22T00:50:12.315Z,44.78
2019-04-22T00:51:06.347Z,45.09
2019-04-22T00:52:03.313Z,45.09
2019-04-22T00:53:03.866Z,45.09
2019-04-22T00:54:01.022Z,44.89
2019-04-22T00:55:06.099Z,44.99
2019-04-22T00:56:00.547Z,44.99
2019-04-22T00:57:05.492Z,45.09
2019-04-22T00:58:06.119Z,45.01
2019-04-22T00:59:04.426Z,44.89
2019-04-22T01:00:01.419Z,44.81
2019-04-22T01:01:04.661Z,44.68
2019-04-22T01:02:02.001Z,44.70
2019-04-22T01:03:07.495Z,45.42
2019-04-22T01:04:07.465Z,45.62
2019-04-22T01:05:04.039Z,45.74
2019-04-22T01:06:08.017Z,46.12
2019-04-22T01:07:00.760Z,46.25
2019-04-22T01:08:04.032Z,46.65
2019-04-22T01:09:17.137Z,46.65
2019-04-22T01:11:04.498Z,47.28
2019-04-22T01:12:04.673Z,46.88
2019-04-22T01:12:59.800Z,47.79
2019-04-22T01:14:01.384Z,47.91
2019-04-22T01:15:05.811Z,47.61
2019-04-22T01:16:09.430Z,47.61
2019-04-22T01:16:59.658Z,48.75
2019-04-22T01:17:57.882Z,48.95
2019-04-22T01:18:58.927Z,48.95
2019-04-22T01:21:58.462Z,49.36
2019-04-22T01:22:58.921Z,48.95
2019-04-22T01:23:52.144Z,49.79
2019-04-22T01:24:57.607Z,49.28
2019-04-22T01:25:55.131Z,49.51
2019-04-22T01:26:49.281Z,49.58
2019-04-22T01:27:48.622Z,49.99
2019-04-22T01:28:50.507Z,49.99
2019-04-22T01:29:46.297Z,50.01
2019-04-22T01:30:48.204Z,50.93
2019-04-22T01:31:37.154Z,50.52
2019-04-22T01:32:41.255Z,51.26
2019-04-22T01:33:44.126Z,51.56
2019-04-22T01:34:51.447Z,51.56
2019-04-22T01:35:53.430Z,51.39
2019-04-22T01:36:56.061Z,51.48
2019-04-22T01:37:54.657Z,51.26
2019-04-22T01:38:58.305Z,51.46
2019-04-22T01:39:57.293Z,51.59
2019-04-22T01:41:04.578Z,52.30
2019-04-22T01:42:10.482Z,52.50
2019-04-22T01:43:08.691Z,52.71
2019-04-22T01:44:15.848Z,52.94
2019-04-22T01:45:02.628Z,52.63
2019-04-22T01:46:06.526Z,53.47
2019-04-22T01:47:00.045Z,53.14
2019-04-22T01:47:57.780Z,52.73
2019-04-22T01:49:05.597Z,53.04
2019-04-22T01:49:59.154Z,53.04
2019-04-22T01:50:54.889Z,53.65
2019-04-22T01:52:05.189Z,52.66
2019-04-22T01:53:06.307Z,53.44
2019-04-22T01:54:03.935Z,53.04
2019-04-22T01:55:03.880Z,53.34
2019-04-22T01:56:06.005Z,52.94
2019-04-22T01:57:02.154Z,53.14
2019-04-22T01:57:59.908Z,53.16
2019-04-22T01:58:50.210Z,53.27
2019-04-22T01:59:51.461Z,53.47
2019-04-22T02:01:02.262Z,52.83
2019-04-22T02:03:08.694Z,53.24
2019-04-22T02:04:01.195Z,53.04
2019-04-22T02:05:10.706Z,53.27
2019-04-22T02:06:07.257Z,53.27
2019-04-22T02:07:03.959Z,53.24
2019-04-22T02:08:09.736Z,53.06
2019-04-22T02:09:09.414Z,53.47
2019-04-22T02:10:07.450Z,53.47
2019-04-22T02:11:03.961Z,53.47
2019-04-22T02:12:00.478Z,52.96
2019-04-22T02:13:01.978Z,53.06
2019-04-22T02:14:57.911Z,53.57
2019-04-22T02:15:58.702Z,53.78
2019-04-22T02:17:01.284Z,53.27
2019-04-22T02:18:01.718Z,53.37
2019-04-22T02:19:02.634Z,53.06
2019-04-22T02:20:06.742Z,52.55
2019-04-22T02:21:03.175Z,52.76
2019-04-22T02:22:00.631Z,53.16
2019-04-22T02:23:17.611Z,53.27
2019-04-22T02:24:06.999Z,52.55
2019-04-22T02:25:06.744Z,52.96
2019-04-22T02:26:04.141Z,53.16
2019-04-22T02:27:00.322Z,53.27
2019-04-22T02:28:05.174Z,53.70
2019-04-22T02:28:55.212Z,53.29
2019-04-22T02:29:58.357Z,53.57
2019-04-22T02:31:23.225Z,53.37
2019-04-22T02:32:17.167Z,53.80
2019-04-22T02:34:13.670Z,53.42
2019-04-22T02:35:05.729Z,53.72
2019-04-22T02:36:16.651Z,53.90
2019-04-22T02:37:04.880Z,53.42
2019-04-22T02:38:10.382Z,53.70
2019-04-22T02:39:07.610Z,53.59
2019-04-22T02:42:13.194Z,53.90
2019-04-22T02:43:12.643Z,53.50
2019-04-22T02:44:12.179Z,53.72
2019-04-22T02:44:58.415Z,53.52
2019-04-22T02:48:10.410Z,54.33
2019-04-22T02:49:11.794Z,54.03
2019-04-22T02:51:11.163Z,53.92
2019-04-22T02:51:59.685Z,53.62
2019-04-22T02:53:13.870Z,54.03
2019-04-22T02:55:10.199Z,53.31
2019-04-22T02:56:12.153Z,53.72
2019-04-22T02:57:18.864Z,53.92
2019-04-22T02:58:05.936Z,53.52
2019-04-22T03:00:18.101Z,53.80
2019-04-22T03:02:03.080Z,53.42
2019-04-22T03:03:27.600Z,53.92
2019-04-22T03:04:09.657Z,53.72
2019-04-22T03:06:56.004Z,53.72
2019-04-22T03:08:06.765Z,53.72
2019-04-22T03:10:18.764Z,53.92
2019-04-22T03:11:16.761Z,53.01
2019-04-22T03:12:11.479Z,53.01
2019-04-22T03:13:08.933Z,53.31
2019-04-22T03:14:59.890Z,52.50
2019-04-22T03:16:59.730Z,53.19
2019-04-22T03:20:06.330Z,52.70
2019-04-22T03:21:02.318Z,53.11
2019-04-22T03:21:59.920Z,53.01
2019-04-22T03:23:16.939Z,53.01
2019-04-22T03:25:32.324Z,53.11
2019-04-22T03:27:01.060Z,53.64
2019-04-22T03:27:58.754Z,53.75
2019-04-22T03:31:04.191Z,53.85
2019-04-22T03:33:16.270Z,54.05
2019-04-22T03:34:57.629Z,53.85
2019-04-22T03:36:29.597Z,52.70
2019-04-22T03:37:55.772Z,53.22
2019-04-22T03:41:13.380Z,53.03
2019-04-22T03:44:18.938Z,52.50
2019-04-22T03:45:10.375Z,52.81
2019-04-22T03:46:06.213Z,53.03
2019-04-22T03:48:05.529Z,53.14
2019-04-22T03:51:09.588Z,53.64
2019-04-22T03:52:16.182Z,53.34
2019-04-22T03:53:11.135Z,53.34
2019-04-22T03:54:16.135Z,53.55
2019-04-22T03:55:09.273Z,53.96
2019-04-22T03:56:18.519Z,53.88
2019-04-22T03:59:28.471Z,53.77
2019-04-22T04:00:15.694Z,54.18
2019-04-22T04:01:06.735Z,53.77
2019-04-22T04:04:19.070Z,53.27
2019-04-22T04:05:01.089Z,53.16
2019-04-22T04:06:00.161Z,53.24
2019-04-22T04:09:14.377Z,53.16
2019-04-22T04:10:15.082Z,52.22
2019-04-22T04:10:57.979Z,52.22
2019-04-22T04:12:03.554Z,52.53
2019-04-22T04:14:12.352Z,53.14
2019-04-22T04:16:03.184Z,51.63
2019-04-22T04:17:13.112Z,51.51
2019-04-22T04:18:06.867Z,51.81
2019-04-22T04:19:17.271Z,51.10
2019-04-22T04:22:09.991Z,51.10
2019-04-22T04:24:22.457Z,50.36
2019-04-22T04:25:19.249Z,50.05
2019-04-22T04:26:00.899Z,51.15
2019-04-22T04:27:20.459Z,50.26
2019-04-22T04:29:30.390Z,50.77
2019-04-22T04:31:09.487Z,51.38
2019-04-22T04:32:18.823Z,50.05
2019-04-22T04:33:09.282Z,50.44
2019-04-22T04:34:28.572Z,50.64
2019-04-22T04:36:23.167Z,50.44
2019-04-22T04:37:18.166Z,50.64
2019-04-22T04:40:18.354Z,50.31
2019-04-22T04:41:10.846Z,50.54
2019-04-22T04:42:14.031Z,50.13
2019-04-22T04:42:58.715Z,50.13
2019-04-22T04:45:24.083Z,50.21
2019-04-22T04:46:06.380Z,49.58
2019-04-22T04:49:08.477Z,48.94
2019-04-22T04:51:16.007Z,49.07
2019-04-22T04:52:10.435Z,49.25
2019-04-22T04:53:19.079Z,48.33
2019-04-22T04:54:14.976Z,48.33
2019-04-22T04:56:10.810Z,47.58
2019-04-22T04:57:11.744Z,47.06
2019-04-22T04:59:16.911Z,47.06
2019-04-22T05:01:07.374Z,46.64
2019-04-22T05:02:10.691Z,46.62
2019-04-22T05:05:20.620Z,45.29
2019-04-22T05:06:09.415Z,44.54
2019-04-22T05:07:08.695Z,44.95
2019-04-22T05:08:29.585Z,44.54
2019-04-22T05:09:15.050Z,45.05
2019-04-22T05:10:09.869Z,45.25
2019-04-22T05:11:11.505Z,44.22
2019-04-22T05:14:05.406Z,43.49
2019-04-22T05:16:22.828Z,43.37
2019-04-22T05:17:03.963Z,43.67
2019-04-22T05:20:06.644Z,42.96
2019-04-22T05:21:09.309Z,42.84
2019-04-22T05:22:05.148Z,42.29
2019-04-22T05:23:01.835Z,42.09
2019-04-22T05:24:02.361Z,41.26
2019-04-22T05:24:58.322Z,41.26
2019-04-22T05:27:08.691Z,41.16
2019-04-22T05:27:57.871Z,41.35
2019-04-22T05:28:57.860Z,41.02
2019-04-22T05:30:21.507Z,40.92
2019-04-22T05:31:01.524Z,41.22
2019-04-22T05:31:59.700Z,41.14
2019-04-22T05:32:55.755Z,41.44
2019-04-22T05:34:04.492Z,41.35
2019-04-22T05:34:59.736Z,40.61
2019-04-22T05:36:01.505Z,40.09
2019-04-22T05:37:01.259Z,40.82
2019-04-22T05:38:04.195Z,39.99
2019-04-22T05:39:00.193Z,40.58
2019-04-22T05:40:06.180Z,40.28
2019-04-22T05:40:56.349Z,40.17
2019-04-22T05:41:59.375Z,40.37
2019-04-22T05:42:56.545Z,39.87
2019-04-22T05:43:58.271Z,40.25
2019-04-22T05:45:08.885Z,40.17
2019-04-22T05:46:01.098Z,40.05
2019-04-22T05:46:56.278Z,40.25
2019-04-22T05:47:57.527Z,39.83
2019-04-22T05:49:03.180Z,40.03
2019-04-22T05:49:54.631Z,39.61
2019-04-22T05:50:57.687Z,39.51
2019-04-22T05:51:55.055Z,39.39
2019-04-22T05:52:55.291Z,38.28
2019-04-22T05:53:57.531Z,39.09
2019-04-22T05:55:05.377Z,39.28
2019-04-22T05:55:58.540Z,38.08
2019-04-22T05:56:53.373Z,38.27
2019-04-22T05:57:59.132Z,38.15
2019-04-22T05:59:02.511Z,38.03
2019-04-22T05:59:58.918Z,37.91
2019-04-22T06:01:20.695Z,37.21
2019-04-22T06:02:02.886Z,37.61
2019-04-22T06:03:06.493Z,37.81
2019-04-22T06:05:01.070Z,37.73
2019-04-22T06:05:55.039Z,36.52
2019-04-22T06:06:54.084Z,36.49
2019-04-22T06:08:02.397Z,36.36
2019-04-22T06:09:00.505Z,36.05
2019-04-22T06:10:00.256Z,35.58
2019-04-22T06:10:58.089Z,35.88
2019-04-22T06:11:53.211Z,36.18
2019-04-22T06:12:54.851Z,36.10
2019-04-22T06:13:53.326Z,36.22
2019-04-22T06:14:58.100Z,35.53
2019-04-22T06:15:57.135Z,36.60
2019-04-22T06:16:58.350Z,35.88
2019-04-22T06:18:02.209Z,35.83
2019-04-22T06:19:00.887Z,37.87
2019-04-22T06:19:57.574Z,37.34
2019-04-22T06:20:59.412Z,37.34
2019-04-22T06:21:57.923Z,37.24
2019-04-22T06:22:56.801Z,36.72
2019-04-22T06:24:04.883Z,37.43
2019-04-22T06:25:01.212Z,36.72
2019-04-22T06:28:05.365Z,36.42
2019-04-22T06:30:01.834Z,37.30
2019-04-22T06:32:17.556Z,36.49
2019-04-22T06:33:05.935Z,35.60
2019-04-22T06:34:06.010Z,36.32
2019-04-22T06:35:07.983Z,35.68
2019-04-22T06:35:56.255Z,35.78
2019-04-22T06:37:16.012Z,35.77
2019-04-22T06:38:20.815Z,36.35
2019-04-22T06:38:59.029Z,35.57
2019-04-22T06:39:52.337Z,35.26
2019-04-22T06:41:05.734Z,35.66
2019-04-22T06:42:00.773Z,36.18
2019-04-22T06:43:03.185Z,35.51
2019-04-22T06:44:04.787Z,37.23
2019-04-22T06:45:02.845Z,36.70
2019-04-22T06:45:51.863Z,35.50
2019-04-22T06:47:00.670Z,35.88
2019-04-22T06:48:56.339Z,35.05
2019-04-22T06:49:57.337Z,34.67
2019-04-22T06:50:52.826Z,35.30
2019-04-22T06:52:05.983Z,36.10
2019-04-22T06:52:56.714Z,35.70
2019-04-22T06:53:58.648Z,35.61
2019-04-22T06:55:03.898Z,36.18
2019-04-22T06:57:00.716Z,36.82
2019-04-22T06:58:01.526Z,36.00
2019-04-22T06:58:53.947Z,36.40
2019-04-22T06:59:58.757Z,35.61
2019-04-22T07:01:18.102Z,36.10
2019-04-22T07:02:06.343Z,35.88
2019-04-22T07:03:18.992Z,35.25
2019-04-22T07:04:56.549Z,35.90
2019-04-22T07:06:01.701Z,36.18
2019-04-22T07:08:14.112Z,35.18
2019-04-22T07:09:14.053Z,35.28
2019-04-22T07:09:54.378Z,35.90
2019-04-22T07:10:57.719Z,36.10
2019-04-22T07:11:58.774Z,35.97
2019-04-22T07:12:56.591Z,35.75
2019-04-22T07:14:55.908Z,35.30
2019-04-22T07:16:13.295Z,36.00
2019-04-22T07:17:00.888Z,36.10
2019-04-22T07:17:55.006Z,35.68
2019-04-22T07:18:54.997Z,35.85
2019-04-22T07:19:58.452Z,35.44
2019-04-22T07:20:58.281Z,35.53
2019-04-22T07:21:57.227Z,35.35
2019-04-22T07:22:54.910Z,34.54
2019-04-22T07:24:17.882Z,35.36
2019-04-22T07:24:58.227Z,35.53
2019-04-22T07:25:56.546Z,34.80
2019-04-22T07:27:02.973Z,34.59
2019-04-22T07:28:56.353Z,34.80
2019-04-22T07:30:03.090Z,33.76
2019-04-22T07:31:01.982Z,33.86
2019-04-22T07:32:04.182Z,33.99
2019-04-22T07:33:14.490Z,35.53
2019-04-22T07:34:03.801Z,35.55
2019-04-22T07:34:59.301Z,35.61
2019-04-22T07:36:06.442Z,34.59
2019-04-22T07:37:53.886Z,35.48
2019-04-22T07:39:01.586Z,34.89
2019-04-22T07:39:50.241Z,34.64
2019-04-22T07:42:01.125Z,34.44
2019-04-22T07:42:57.137Z,34.49
2019-04-22T07:44:55.162Z,34.69
2019-04-22T07:45:55.035Z,33.86
2019-04-22T07:48:04.419Z,34.67
2019-04-22T07:49:05.245Z,35.61
2019-04-22T07:49:59.224Z,35.91
2019-04-22T07:51:57.023Z,33.47
2019-04-22T07:52:51.804Z,34.99
2019-04-22T07:53:55.837Z,34.48
2019-04-22T07:54:56.897Z,34.58
2019-04-22T07:57:07.276Z,33.64
2019-04-22T07:57:51.983Z,34.43
2019-04-22T07:58:55.570Z,33.76
2019-04-22T08:00:01.010Z,34.66
2019-04-22T08:00:55.911Z,34.55
2019-04-22T08:01:55.921Z,34.78
2019-04-22T08:02:59.698Z,35.25
2019-04-22T08:06:05.369Z,32.98
2019-04-22T08:06:58.949Z,33.18
2019-04-22T08:08:02.592Z,32.89
2019-04-22T08:09:01.832Z,33.59
2019-04-22T08:10:24.326Z,33.62
2019-04-22T08:10:59.438Z,33.12
2019-04-22T08:11:53.971Z,33.39
2019-04-22T08:13:53.298Z,33.96
2019-04-22T08:15:04.283Z,34.55
2019-04-22T08:15:58.714Z,33.73
2019-04-22T08:17:01.011Z,33.73
2019-04-22T08:18:06.916Z,33.73
2019-04-22T08:19:03.114Z,34.24
2019-04-22T08:19:57.769Z,33.59
2019-04-22T08:20:58.877Z,33.58
2019-04-22T08:21:57.013Z,32.65
2019-04-22T08:23:01.199Z,32.97
2019-04-22T08:23:57.001Z,33.38
2019-04-22T08:24:56.152Z,33.47
2019-04-22T08:25:55.489Z,31.92
2019-04-22T08:27:01.285Z,32.71
2019-04-22T08:27:57.083Z,31.81
2019-04-22T08:28:58.604Z,31.60
2019-04-22T08:30:11.890Z,31.40
2019-04-22T08:30:55.082Z,31.99
2019-04-22T08:32:53.232Z,31.90
2019-04-22T08:34:00.643Z,31.40
2019-04-22T08:34:56.470Z,31.39
2019-04-22T08:36:09.034Z,31.19
2019-04-22T08:37:24.122Z,32.18
2019-04-22T08:40:03.585Z,32.47
2019-04-22T08:41:00.527Z,31.72
2019-04-22T08:41:51.735Z,31.51
2019-04-22T08:43:11.516Z,32.00
2019-04-22T08:44:02.265Z,31.99
2019-04-22T08:45:56.872Z,33.50
2019-04-22T08:47:04.719Z,32.00
2019-04-22T08:47:59.075Z,31.73
2019-04-22T08:48:54.260Z,32.03
2019-04-22T08:50:04.852Z,32.67
2019-04-22T08:51:00.782Z,33.25
2019-04-22T08:51:58.881Z,33.25
2019-04-22T08:53:02.654Z,33.73
2019-04-22T08:54:00.216Z,32.00
2019-04-22T08:54:57.375Z,31.29
2019-04-22T08:56:07.738Z,32.10
2019-04-22T08:56:49.397Z,31.48
2019-04-22T08:58:18.609Z,31.99
2019-04-22T08:59:01.815Z,31.36
2019-04-22T08:59:57.438Z,31.69
2019-04-22T09:01:02.587Z,32.30
2019-04-22T09:02:01.043Z,32.10
2019-04-22T09:02:59.547Z,32.40
2019-04-22T09:03:58.033Z,32.57
2019-04-22T09:04:56.930Z,31.54
2019-04-22T09:07:07.710Z,30.73
2019-04-22T09:08:05.939Z,30.82
2019-04-22T09:09:00.917Z,31.81
2019-04-22T09:09:55.290Z,31.51
2019-04-22T09:11:00.260Z,31.13
2019-04-22T09:11:54.747Z,30.51
2019-04-22T09:13:55.136Z,30.12
2019-04-22T09:14:53.649Z,30.46
2019-04-22T09:15:58.992Z,31.45
2019-04-22T09:17:02.370Z,30.43
2019-04-22T09:17:56.049Z,31.34
2019-04-22T09:18:56.109Z,31.63
2019-04-22T09:19:47.814Z,30.75
2019-04-22T09:21:01.415Z,30.33
2019-04-22T09:22:53.691Z,31.48
2019-04-22T09:24:00.761Z,30.56
2019-04-22T09:24:55.157Z,31.53
2019-04-22T09:25:57.573Z,30.54
2019-04-22T09:26:54.293Z,30.25
2019-04-22T09:28:10.319Z,30.66
2019-04-22T09:29:03.284Z,30.76
2019-04-22T09:29:53.713Z,30.58
2019-04-22T09:30:56.226Z,30.58
2019-04-22T09:32:00.256Z,30.85
2019-04-22T09:33:06.399Z,30.12
2019-04-22T09:33:49.243Z,29.11
2019-04-22T09:34:51.980Z,29.33
2019-04-22T09:36:01.816Z,29.85
2019-04-22T09:37:01.514Z,29.52
2019-04-22T09:38:00.263Z,29.03
2019-04-22T09:38:56.510Z,29.30
2019-04-22T09:40:02.870Z,29.37
2019-04-22T09:40:52.501Z,28.86
2019-04-22T09:41:51.154Z,28.76
2019-04-22T09:42:56.391Z,29.28
2019-04-22T09:43:57.002Z,28.67
2019-04-22T09:44:56.604Z,28.11
2019-04-22T09:45:52.960Z,29.44
2019-04-22T09:46:53.740Z,29.34
2019-04-22T09:49:03.466Z,28.39
2019-04-22T09:50:12.658Z,27.77
2019-04-22T09:50:53.622Z,28.46
2019-04-22T09:51:59.997Z,28.46
2019-04-22T09:52:54.731Z,28.49
2019-04-22T09:54:02.347Z,28.83
2019-04-22T09:55:00.262Z,28.83
2019-04-22T09:55:56.748Z,27.92
2019-04-22T09:56:56.514Z,29.43
2019-04-22T09:57:52.083Z,28.81
2019-04-22T09:58:55.709Z,29.19
2019-04-22T10:01:03.046Z,29.39
2019-04-22T10:02:10.122Z,29.04
2019-04-22T10:05:00.057Z,27.73
2019-04-22T10:06:07.502Z,29.19
2019-04-22T10:06:54.255Z,29.61
2019-04-22T10:09:24.070Z,29.82
2019-04-22T10:10:58.264Z,30.24
2019-04-22T10:11:53.471Z,30.22
2019-04-22T10:13:00.271Z,28.73
2019-04-22T10:14:55.835Z,29.51
2019-04-22T10:15:57.298Z,29.81
2019-04-22T10:16:54.021Z,27.97
2019-04-22T10:17:57.545Z,28.23
2019-04-22T10:19:58.245Z,26.08
2019-04-22T10:20:57.290Z,27.61
2019-04-22T10:21:57.134Z,28.39
2019-04-22T10:22:53.244Z,26.58
2019-04-22T10:24:01.749Z,28.56
2019-04-22T10:25:01.706Z,27.87
2019-04-22T10:25:45.273Z,27.73
2019-04-22T10:26:50.357Z,26.44
2019-04-22T10:27:55.214Z,26.78
2019-04-22T10:29:00.815Z,28.08
2019-04-22T10:30:00.130Z,28.36
2019-04-22T10:31:54.388Z,27.08
2019-04-22T10:32:52.609Z,26.85
2019-04-22T10:33:46.575Z,26.54
2019-04-22T10:34:37.913Z,25.95
2019-04-22T10:35:32.231Z,27.75
2019-04-22T10:36:27.849Z,28.25
2019-04-22T10:37:30.021Z,26.84
2019-04-22T10:38:28.403Z,26.25
2019-04-22T10:39:39.666Z,26.65
2019-04-22T10:40:28.386Z,26.64
2019-04-22T10:41:28.422Z,26.53
2019-04-22T10:42:27.368Z,26.61
2019-04-22T10:43:27.605Z,26.54
2019-04-22T10:44:29.221Z,26.14
2019-04-22T10:45:28.229Z,26.59
2019-04-22T10:46:28.381Z,28.09
2019-04-22T10:47:27.993Z,28.29
2019-04-22T10:48:28.329Z,27.95
2019-04-22T10:49:28.798Z,26.44
2019-04-22T10:50:28.210Z,27.06
2019-04-22T10:51:28.548Z,26.85
2019-04-22T10:52:27.650Z,27.02
2019-04-22T10:53:27.264Z,25.85
2019-04-22T10:54:29.396Z,25.86
2019-04-22T10:55:27.533Z,25.31
2019-04-22T10:56:27.349Z,25.40
2019-04-22T10:57:27.945Z,25.96
2019-04-22T10:58:28.892Z,26.08
2019-04-22T10:59:27.187Z,26.18
2019-04-22T11:00:29.311Z,26.69
2019-04-22T11:01:29.595Z,26.29
2019-04-22T11:02:27.688Z,27.21
2019-04-22T11:03:28.286Z,26.22
2019-04-22T11:04:28.059Z,26.22
2019-04-22T11:05:28.250Z,26.40
2019-04-22T11:06:33.653Z,27.11
2019-04-22T11:07:38.656Z,26.62
2019-04-22T11:08:37.111Z,26.29
2019-04-22T11:09:29.120Z,26.48
2019-04-22T11:10:45.572Z,26.29
2019-04-22T11:11:43.942Z,25.80
2019-04-22T11:12:32.297Z,25.99
2019-04-22T11:13:28.374Z,26.04
2019-04-22T11:14:28.502Z,25.95
2019-04-22T11:15:28.581Z,24.68
2019-04-22T11:16:29.693Z,25.19
2019-04-22T11:17:27.038Z,25.19
2019-04-22T11:18:29.456Z,24.90
2019-04-22T11:19:29.735Z,25.09
2019-04-22T11:20:26.978Z,25.15
2019-04-22T11:21:29.580Z,24.99
2019-04-22T11:22:31.641Z,25.19
2019-04-22T11:23:28.814Z,26.09
2019-04-22T11:24:28.514Z,26.10
2019-04-22T11:25:27.750Z,25.99
2019-04-22T11:26:28.232Z,26.58
2019-04-22T11:27:28.705Z,26.38
2019-04-22T11:28:27.782Z,26.38
2019-04-22T11:29:27.838Z,27.37
2019-04-22T11:30:28.369Z,26.87
2019-04-22T11:31:28.195Z,27.27
2019-04-22T11:32:26.959Z,26.35
2019-04-22T11:33:26.881Z,25.02
2019-04-22T11:34:29.064Z,25.20
2019-04-22T11:35:27.960Z,25.81
2019-04-22T11:36:29.150Z,25.72
2019-04-22T11:37:28.171Z,25.85
2019-04-22T11:38:26.943Z,26.42
2019-04-22T11:39:30.383Z,25.81
2019-04-22T11:40:34.939Z,24.62
2019-04-22T11:41:29.119Z,25.98
2019-04-22T11:42:28.132Z,27.10
2019-04-22T11:43:28.351Z,28.39
2019-04-22T11:44:30.649Z,26.78
2019-04-22T11:45:27.118Z,26.55
2019-04-22T11:46:29.518Z,26.28
2019-04-22T11:47:27.473Z,26.38
2019-04-22T11:48:27.092Z,26.95
2019-04-22T11:49:27.911Z,27.09
2019-04-22T11:50:27.960Z,27.98
2019-04-22T11:51:27.585Z,26.89
2019-04-22T11:52:26.972Z,26.87
2019-04-22T11:53:27.045Z,25.55
2019-04-22T11:54:28.876Z,26.23
2019-04-22T11:55:26.877Z,26.14
2019-04-22T11:56:29.384Z,27.33
2019-04-22T11:57:26.613Z,25.68
2019-04-22T11:58:26.645Z,26.38
2019-04-22T11:59:26.843Z,25.45
2019-04-22T12:00:27.503Z,26.46
2019-04-22T12:01:28.740Z,26.48
2019-04-22T12:02:27.164Z,26.20
2019-04-22T12:03:26.932Z,26.17
2019-04-22T12:04:27.636Z,26.18
2019-04-22T12:05:28.142Z,25.97
2019-04-22T12:06:26.535Z,26.17
2019-04-22T12:07:26.750Z,24.88
2019-04-22T12:08:27.019Z,25.59
2019-04-22T12:09:27.799Z,25.49
2019-04-22T12:10:36.703Z,24.40
2019-04-22T12:11:30.154Z,24.46
2019-04-22T12:12:27.826Z,23.97
2019-04-22T12:13:26.505Z,24.35
2019-04-22T12:14:27.763Z,23.19
2019-04-22T12:15:28.931Z,23.30
2019-04-22T12:16:27.368Z,24.43
2019-04-22T12:17:26.576Z,24.31
2019-04-22T12:18:27.135Z,24.30
2019-04-22T12:19:27.145Z,24.41
2019-04-22T12:20:27.584Z,25.40
2019-04-22T12:21:28.879Z,24.41
2019-04-22T12:22:26.943Z,25.31
2019-04-22T12:23:27.328Z,26.01
2019-04-22T12:24:27.993Z,25.71
2019-04-22T12:25:36.122Z,26.09
2019-04-22T12:26:30.493Z,26.17
2019-04-22T12:27:28.791Z,24.97
2019-04-22T12:28:26.866Z,24.66
2019-04-22T12:29:26.926Z,25.38
2019-04-22T12:30:27.731Z,25.49
2019-04-22T12:31:29.063Z,25.98
2019-04-22T12:32:27.428Z,26.29
2019-04-22T12:33:27.703Z,26.12
2019-04-22T12:34:31.062Z,26.08
2019-04-22T12:35:26.362Z,25.87
2019-04-22T12:36:26.620Z,25.38
2019-04-22T12:37:35.391Z,25.00
2019-04-22T12:38:27.424Z,26.01
2019-04-22T12:39:27.518Z,24.89
2019-04-22T12:40:38.276Z,25.71
2019-04-22T12:41:27.791Z,26.31
2019-04-22T12:42:27.111Z,25.90
2019-04-22T12:43:27.823Z,25.99
2019-04-22T12:44:26.663Z,25.92
2019-04-22T12:45:27.817Z,26.72
2019-04-22T12:46:26.249Z,26.23
2019-04-22T12:47:30.437Z,26.10
2019-04-22T12:48:27.576Z,26.08
2019-04-22T12:49:26.144Z,25.68
2019-04-22T12:50:31.004Z,26.38
2019-04-22T12:51:27.306Z,25.86
2019-04-22T12:52:36.997Z,25.66
2019-04-22T12:53:28.007Z,24.35
2019-04-22T12:54:26.901Z,24.56
2019-04-22T12:55:28.042Z,24.67
2019-04-22T12:56:26.023Z,25.71
2019-04-22T12:57:28.289Z,25.00
2019-04-22T12:58:27.556Z,26.10
2019-04-22T12:59:26.009Z,25.80
2019-04-22T13:00:26.631Z,26.17
2019-04-22T13:01:26.819Z,24.38
2019-04-22T13:02:27.408Z,23.97
2019-04-22T13:03:29.354Z,24.65
2019-04-22T13:04:25.947Z,24.00
2019-04-22T13:05:26.896Z,24.10
2019-04-22T13:06:25.976Z,24.57
2019-04-22T13:07:26.030Z,23.99
2019-04-22T13:08:27.708Z,24.29
2019-04-22T13:09:27.572Z,25.29
2019-04-22T13:10:29.700Z,25.99
2019-04-22T13:11:30.835Z,26.08
2019-04-22T13:12:26.851Z,25.39
2019-04-22T13:13:28.796Z,25.19
2019-04-22T13:14:27.412Z,26.08
2019-04-22T13:15:26.712Z,25.39
2019-04-22T13:16:27.298Z,25.77
2019-04-22T13:17:27.118Z,26.26
2019-04-22T13:18:37.133Z,25.63
2019-04-22T13:19:28.256Z,24.97
2019-04-22T13:20:28.565Z,24.97
2019-04-22T13:21:26.902Z,24.07
2019-04-22T13:22:26.974Z,24.07
2019-04-22T13:23:27.609Z,24.40
2019-04-22T13:24:28.074Z,23.80
2019-04-22T13:25:28.046Z,22.78
2019-04-22T13:26:27.172Z,22.89
2019-04-22T13:27:26.876Z,22.78
2019-04-22T13:28:27.274Z,23.11
2019-04-22T13:29:25.679Z,24.22
2019-04-22T13:30:26.318Z,22.82
2019-04-22T13:31:26.822Z,24.10
2019-04-22T13:32:28.850Z,22.67
2019-04-22T13:33:28.682Z,23.27
2019-04-22T13:34:34.806Z,23.27
2019-04-22T13:35:27.911Z,23.18
2019-04-22T13:36:27.710Z,23.26
2019-04-22T13:37:25.685Z,22.96
2019-04-22T13:38:27.025Z,22.50
2019-04-22T13:39:27.131Z,22.69
2019-04-22T13:40:25.558Z,23.38
2019-04-22T13:41:33.880Z,22.28
2019-04-22T13:42:27.578Z,22.26
2019-04-22T13:43:26.763Z,22.69
2019-04-22T13:44:28.144Z,23.12
2019-04-22T13:45:27.631Z,23.41
2019-04-22T13:46:31.371Z,24.00
2019-04-22T13:47:42.386Z,23.11
2019-04-22T13:48:49.860Z,22.89
2019-04-22T13:49:59.041Z,22.78
2019-04-22T13:51:01.362Z,22.89
2019-04-22T13:52:01.815Z,22.89
2019-04-22T13:54:06.516Z,22.88
2019-04-22T13:54:37.266Z,23.16
2019-04-22T13:55:57.949Z,24.48
2019-04-22T13:56:49.245Z,24.29
2019-04-22T13:57:47.104Z,24.57
2019-04-22T13:58:42.313Z,24.68
2019-04-22T13:59:33.228Z,24.18
2019-04-22T14:00:26.919Z,23.49
2019-04-22T14:01:30.264Z,24.30
2019-04-22T14:02:26.698Z,23.39
2019-04-22T14:03:26.769Z,23.41
2019-04-22T14:04:26.638Z,24.60
2019-04-22T14:05:26.783Z,24.80
2019-04-22T14:06:28.939Z,23.90
2019-04-22T14:07:25.301Z,22.80
2019-04-22T14:08:25.265Z,22.92
2019-04-22T14:09:26.447Z,23.32
2019-04-22T14:10:26.842Z,23.32
2019-04-22T14:11:37.637Z,23.68
2019-04-22T14:12:26.695Z,23.50
2019-04-22T14:13:25.869Z,23.30
2019-04-22T14:14:26.003Z,22.91
2019-04-22T14:15:27.788Z,23.58
2019-04-22T14:16:25.177Z,23.48
2019-04-22T14:17:25.163Z,22.59
2019-04-22T14:18:33.012Z,23.68
2019-04-22T14:19:27.772Z,23.16
2019-04-22T14:20:27.702Z,22.69
2019-04-22T14:21:25.135Z,23.16
2019-04-22T14:22:26.382Z,22.84
2019-04-22T14:23:26.830Z,22.75
2019-04-22T14:24:25.974Z,23.25
2019-04-22T14:25:25.087Z,24.37
2019-04-22T14:26:25.159Z,24.49
2019-04-22T14:27:37.266Z,23.90
2019-04-22T14:28:29.282Z,23.29
2019-04-22T14:29:26.028Z,24.00
2019-04-22T14:30:26.276Z,24.10
2019-04-22T14:31:26.533Z,24.20
2019-04-22T14:32:28.031Z,24.07
2019-04-22T14:33:27.962Z,23.88
2019-04-22T14:34:26.605Z,24.00
2019-04-22T14:35:25.233Z,24.31
2019-04-22T14:36:25.380Z,24.49
2019-04-22T14:37:24.971Z,25.39
2019-04-22T14:38:27.960Z,24.99
2019-04-22T14:39:26.133Z,24.37